sensor_id;sensor_type;location;lat;lon;timestamp;P1;durP1;ratioP1;P2;durP2;ratioP2
12654;SDS011;6392;44.644;11.448;2023-02-15T00:01:13;51.63;;;20.80;;
12654;SDS011;6392;44.644;11.448;2023-02-15T00:03:40;47.50;;;20.53;;
12654;SDS011;6392;44.644;11.448;2023-02-15T00:06:09;47.10;;;20.50;;
12654;SDS011;6392;44.644;11.448;2023-02-15T00:08:36;48.10;;;21.33;;
12654;SDS011;6392;44.644;11.448;2023-02-15T00:11:04;45.13;;;20.63;;
12654;SDS011;6392;44.644;11.448;2023-02-15T00:13:32;44.47;;;20.87;;
12654;SDS011;6392;44.644;11.448;2023-02-15T00:16:01;46.10;;;22.10;;
12654;SDS011;6392;44.644;11.448;2023-02-15T00:18:29;46.50;;;20.27;;
12654;SDS011;6392;44.644;11.448;2023-02-15T00:20:56;45.00;;;19.80;;
12654;SDS011;6392;44.644;11.448;2023-02-15T00:23:25;49.47;;;20.93;;
12654;SDS011;6392;44.644;11.448;2023-02-15T00:26:02;43.37;;;18.40;;
12654;SDS011;6392;44.644;11.448;2023-02-15T00:28:30;51.40;;;21.30;;
12654;SDS011;6392;44.644;11.448;2023-02-15T00:31:01;40.50;;;18.53;;
12654;SDS011;6392;44.644;11.448;2023-02-15T00:33:32;40.60;;;18.47;;
12654;SDS011;6392;44.644;11.448;2023-02-15T00:35:59;43.53;;;18.20;;
12654;SDS011;6392;44.644;11.448;2023-02-15T00:38:29;37.33;;;18.50;;
12654;SDS011;6392;44.644;11.448;2023-02-15T00:40:57;46.83;;;19.80;;
12654;SDS011;6392;44.644;11.448;2023-02-15T00:43:25;44.57;;;18.50;;
12654;SDS011;6392;44.644;11.448;2023-02-15T00:45:53;38.40;;;18.80;;
12654;SDS011;6392;44.644;11.448;2023-02-15T00:48:20;41.03;;;19.43;;
12654;SDS011;6392;44.644;11.448;2023-02-15T00:50:48;45.43;;;19.23;;
12654;SDS011;6392;44.644;11.448;2023-02-15T00:53:18;40.60;;;19.60;;
12654;SDS011;6392;44.644;11.448;2023-02-15T00:55:46;43.47;;;20.37;;
12654;SDS011;6392;44.644;11.448;2023-02-15T00:58:14;43.33;;;19.03;;
12654;SDS011;6392;44.644;11.448;2023-02-15T01:00:42;45.73;;;20.00;;
12654;SDS011;6392;44.644;11.448;2023-02-15T01:03:10;48.60;;;19.07;;
12654;SDS011;6392;44.644;11.448;2023-02-15T01:05:38;43.73;;;19.80;;
12654;SDS011;6392;44.644;11.448;2023-02-15T01:08:06;40.30;;;19.30;;
12654;SDS011;6392;44.644;11.448;2023-02-15T01:10:34;47.97;;;19.83;;
12654;SDS011;6392;44.644;11.448;2023-02-15T01:13:02;40.53;;;19.27;;
12654;SDS011;6392;44.644;11.448;2023-02-15T01:15:30;41.17;;;18.40;;
12654;SDS011;6392;44.644;11.448;2023-02-15T01:18:00;48.47;;;18.07;;
12654;SDS011;6392;44.644;11.448;2023-02-15T01:20:27;41.77;;;19.67;;
12654;SDS011;6392;44.644;11.448;2023-02-15T01:22:56;42.03;;;19.30;;
12654;SDS011;6392;44.644;11.448;2023-02-15T01:25:23;44.07;;;19.20;;
12654;SDS011;6392;44.644;11.448;2023-02-15T01:27:50;42.50;;;19.77;;
12654;SDS011;6392;44.644;11.448;2023-02-15T01:30:19;47.97;;;21.00;;
12654;SDS011;6392;44.644;11.448;2023-02-15T01:32:46;46.53;;;20.67;;
12654;SDS011;6392;44.644;11.448;2023-02-15T01:35:13;43.37;;;18.37;;
12654;SDS011;6392;44.644;11.448;2023-02-15T01:37:40;43.93;;;19.13;;
12654;SDS011;6392;44.644;11.448;2023-02-15T01:40:08;41.40;;;18.33;;
12654;SDS011;6392;44.644;11.448;2023-02-15T01:42:38;41.57;;;17.73;;
12654;SDS011;6392;44.644;11.448;2023-02-15T01:45:12;44.00;;;19.07;;
12654;SDS011;6392;44.644;11.448;2023-02-15T01:47:50;34.93;;;16.33;;
12654;SDS011;6392;44.644;11.448;2023-02-15T01:50:26;40.20;;;18.57;;
12654;SDS011;6392;44.644;11.448;2023-02-15T01:52:57;43.23;;;19.47;;
12654;SDS011;6392;44.644;11.448;2023-02-15T01:55:30;39.73;;;18.63;;
12654;SDS011;6392;44.644;11.448;2023-02-15T01:58:00;43.37;;;18.87;;
12654;SDS011;6392;44.644;11.448;2023-02-15T02:00:29;41.33;;;19.57;;
12654;SDS011;6392;44.644;11.448;2023-02-15T02:02:56;44.40;;;18.53;;
12654;SDS011;6392;44.644;11.448;2023-02-15T02:05:24;42.10;;;17.20;;
12654;SDS011;6392;44.644;11.448;2023-02-15T02:07:51;41.13;;;18.27;;
12654;SDS011;6392;44.644;11.448;2023-02-15T02:10:21;33.23;;;17.40;;
12654;SDS011;6392;44.644;11.448;2023-02-15T02:12:50;40.87;;;17.97;;
12654;SDS011;6392;44.644;11.448;2023-02-15T02:15:19;36.40;;;15.83;;
12654;SDS011;6392;44.644;11.448;2023-02-15T02:17:56;38.60;;;17.97;;
12654;SDS011;6392;44.644;11.448;2023-02-15T02:23:38;30.10;;;16.07;;
12654;SDS011;6392;44.644;11.448;2023-02-15T02:35:54;38.50;;;16.77;;
12654;SDS011;6392;44.644;11.448;2023-02-15T02:38:27;39.10;;;17.50;;
12654;SDS011;6392;44.644;11.448;2023-02-15T02:41:00;32.73;;;16.73;;
12654;SDS011;6392;44.644;11.448;2023-02-15T02:43:38;34.03;;;16.63;;
12654;SDS011;6392;44.644;11.448;2023-02-15T02:46:13;36.27;;;17.47;;
12654;SDS011;6392;44.644;11.448;2023-02-15T02:48:46;40.37;;;17.97;;
12654;SDS011;6392;44.644;11.448;2023-02-15T02:51:16;36.43;;;17.43;;
12654;SDS011;6392;44.644;11.448;2023-02-15T02:53:47;40.37;;;16.70;;
12654;SDS011;6392;44.644;11.448;2023-02-15T02:56:19;37.63;;;17.07;;
12654;SDS011;6392;44.644;11.448;2023-02-15T02:58:51;38.30;;;16.90;;
12654;SDS011;6392;44.644;11.448;2023-02-15T03:01:24;35.57;;;16.63;;
12654;SDS011;6392;44.644;11.448;2023-02-15T03:03:55;33.73;;;16.30;;
12654;SDS011;6392;44.644;11.448;2023-02-15T03:06:30;43.60;;;16.70;;
12654;SDS011;6392;44.644;11.448;2023-02-15T03:09:03;38.90;;;17.60;;
12654;SDS011;6392;44.644;11.448;2023-02-15T03:11:40;33.40;;;16.10;;
12654;SDS011;6392;44.644;11.448;2023-02-15T03:14:09;34.53;;;15.87;;
12654;SDS011;6392;44.644;11.448;2023-02-15T03:16:37;34.67;;;16.37;;
12654;SDS011;6392;44.644;11.448;2023-02-15T03:19:07;35.80;;;16.77;;
12654;SDS011;6392;44.644;11.448;2023-02-15T03:21:40;31.90;;;14.90;;
12654;SDS011;6392;44.644;11.448;2023-02-15T03:24:14;35.07;;;16.77;;
12654;SDS011;6392;44.644;11.448;2023-02-15T03:26:45;36.83;;;16.20;;
12654;SDS011;6392;44.644;11.448;2023-02-15T03:29:16;36.87;;;18.20;;
12654;SDS011;6392;44.644;11.448;2023-02-15T03:31:46;39.03;;;17.67;;
12654;SDS011;6392;44.644;11.448;2023-02-15T03:34:17;45.20;;;18.50;;
12654;SDS011;6392;44.644;11.448;2023-02-15T03:36:47;30.27;;;16.73;;
12654;SDS011;6392;44.644;11.448;2023-02-15T03:39:20;35.40;;;17.67;;
12654;SDS011;6392;44.644;11.448;2023-02-15T03:41:55;36.13;;;16.60;;
12654;SDS011;6392;44.644;11.448;2023-02-15T03:44:27;35.67;;;16.50;;
12654;SDS011;6392;44.644;11.448;2023-02-15T03:46:58;34.60;;;17.00;;
12654;SDS011;6392;44.644;11.448;2023-02-15T03:49:31;37.33;;;15.53;;
12654;SDS011;6392;44.644;11.448;2023-02-15T03:52:06;34.03;;;14.43;;
12654;SDS011;6392;44.644;11.448;2023-02-15T03:54:36;29.33;;;14.57;;
12654;SDS011;6392;44.644;11.448;2023-02-15T03:57:12;29.10;;;13.60;;
12654;SDS011;6392;44.644;11.448;2023-02-15T03:59:58;33.23;;;14.97;;
12654;SDS011;6392;44.644;11.448;2023-02-15T04:02:45;31.00;;;14.63;;
12654;SDS011;6392;44.644;11.448;2023-02-15T04:05:21;28.27;;;14.23;;
12654;SDS011;6392;44.644;11.448;2023-02-15T04:07:49;31.63;;;14.07;;
12654;SDS011;6392;44.644;11.448;2023-02-15T04:10:16;30.03;;;14.17;;
12654;SDS011;6392;44.644;11.448;2023-02-15T04:13:01;27.77;;;13.67;;
12654;SDS011;6392;44.644;11.448;2023-02-15T04:15:28;30.53;;;14.23;;
12654;SDS011;6392;44.644;11.448;2023-02-15T04:18:12;26.17;;;13.80;;
12654;SDS011;6392;44.644;11.448;2023-02-15T04:20:42;25.43;;;12.67;;
12654;SDS011;6392;44.644;11.448;2023-02-15T04:23:28;28.20;;;13.93;;
12654;SDS011;6392;44.644;11.448;2023-02-15T04:26:12;26.63;;;13.07;;
12654;SDS011;6392;44.644;11.448;2023-02-15T04:28:39;31.60;;;14.30;;
12654;SDS011;6392;44.644;11.448;2023-02-15T04:31:06;28.13;;;13.13;;
12654;SDS011;6392;44.644;11.448;2023-02-15T04:33:34;26.43;;;13.77;;
12654;SDS011;6392;44.644;11.448;2023-02-15T04:36:02;33.33;;;14.10;;
12654;SDS011;6392;44.644;11.448;2023-02-15T04:38:31;35.33;;;14.63;;
12654;SDS011;6392;44.644;11.448;2023-02-15T04:40:58;28.93;;;13.83;;
12654;SDS011;6392;44.644;11.448;2023-02-15T04:43:25;31.50;;;13.73;;
12654;SDS011;6392;44.644;11.448;2023-02-15T04:45:52;28.23;;;13.13;;
12654;SDS011;6392;44.644;11.448;2023-02-15T04:48:19;29.70;;;14.07;;
12654;SDS011;6392;44.644;11.448;2023-02-15T04:50:46;31.70;;;13.70;;
12654;SDS011;6392;44.644;11.448;2023-02-15T04:53:13;26.87;;;14.13;;
12654;SDS011;6392;44.644;11.448;2023-02-15T04:55:43;33.80;;;14.23;;
12654;SDS011;6392;44.644;11.448;2023-02-15T04:58:10;27.33;;;12.73;;
12654;SDS011;6392;44.644;11.448;2023-02-15T05:00:36;27.80;;;13.23;;
12654;SDS011;6392;44.644;11.448;2023-02-15T05:03:03;26.40;;;13.30;;
12654;SDS011;6392;44.644;11.448;2023-02-15T05:05:30;30.17;;;13.70;;
12654;SDS011;6392;44.644;11.448;2023-02-15T05:07:57;34.17;;;14.67;;
12654;SDS011;6392;44.644;11.448;2023-02-15T05:10:24;33.00;;;13.37;;
12654;SDS011;6392;44.644;11.448;2023-02-15T05:12:53;29.80;;;13.20;;
12654;SDS011;6392;44.644;11.448;2023-02-15T05:15:20;26.37;;;12.50;;
12654;SDS011;6392;44.644;11.448;2023-02-15T05:17:47;26.00;;;12.97;;
12654;SDS011;6392;44.644;11.448;2023-02-15T05:20:14;28.23;;;13.40;;
12654;SDS011;6392;44.644;11.448;2023-02-15T05:22:41;23.67;;;12.90;;
12654;SDS011;6392;44.644;11.448;2023-02-15T05:25:09;30.33;;;13.30;;
12654;SDS011;6392;44.644;11.448;2023-02-15T05:27:54;30.90;;;13.60;;
12654;SDS011;6392;44.644;11.448;2023-02-15T05:30:39;27.70;;;12.10;;
12654;SDS011;6392;44.644;11.448;2023-02-15T05:33:06;26.20;;;12.50;;
12654;SDS011;6392;44.644;11.448;2023-02-15T05:35:33;27.07;;;12.77;;
12654;SDS011;6392;44.644;11.448;2023-02-15T05:38:00;23.40;;;12.33;;
12654;SDS011;6392;44.644;11.448;2023-02-15T05:40:27;26.63;;;12.83;;
12654;SDS011;6392;44.644;11.448;2023-02-15T05:42:56;26.97;;;13.17;;
12654;SDS011;6392;44.644;11.448;2023-02-15T05:45:23;26.13;;;12.23;;
12654;SDS011;6392;44.644;11.448;2023-02-15T05:47:51;30.37;;;13.60;;
12654;SDS011;6392;44.644;11.448;2023-02-15T05:50:18;28.53;;;13.90;;
12654;SDS011;6392;44.644;11.448;2023-02-15T05:52:45;25.90;;;13.23;;
12654;SDS011;6392;44.644;11.448;2023-02-15T05:55:12;32.77;;;13.70;;
12654;SDS011;6392;44.644;11.448;2023-02-15T05:57:39;29.10;;;12.80;;
12654;SDS011;6392;44.644;11.448;2023-02-15T06:00:08;28.00;;;12.47;;
12654;SDS011;6392;44.644;11.448;2023-02-15T06:02:36;26.67;;;11.77;;
12654;SDS011;6392;44.644;11.448;2023-02-15T06:05:04;26.67;;;11.63;;
12654;SDS011;6392;44.644;11.448;2023-02-15T06:07:31;29.47;;;12.37;;
12654;SDS011;6392;44.644;11.448;2023-02-15T06:09:59;27.23;;;11.93;;
12654;SDS011;6392;44.644;11.448;2023-02-15T06:12:26;29.53;;;12.50;;
12654;SDS011;6392;44.644;11.448;2023-02-15T06:14:53;23.20;;;10.53;;
12654;SDS011;6392;44.644;11.448;2023-02-15T06:17:22;22.67;;;11.00;;
12654;SDS011;6392;44.644;11.448;2023-02-15T06:19:49;28.27;;;11.67;;
12654;SDS011;6392;44.644;11.448;2023-02-15T06:22:16;22.17;;;10.80;;
12654;SDS011;6392;44.644;11.448;2023-02-15T06:24:43;25.40;;;11.90;;
12654;SDS011;6392;44.644;11.448;2023-02-15T06:27:10;28.60;;;10.67;;
12654;SDS011;6392;44.644;11.448;2023-02-15T06:29:37;25.63;;;11.40;;
12654;SDS011;6392;44.644;11.448;2023-02-15T06:32:04;20.57;;;11.00;;
12654;SDS011;6392;44.644;11.448;2023-02-15T06:34:33;21.80;;;11.60;;
12654;SDS011;6392;44.644;11.448;2023-02-15T06:37:00;22.53;;;11.47;;
12654;SDS011;6392;44.644;11.448;2023-02-15T06:39:27;25.50;;;10.17;;
12654;SDS011;6392;44.644;11.448;2023-02-15T06:41:54;27.83;;;12.20;;
12654;SDS011;6392;44.644;11.448;2023-02-15T06:44:21;26.03;;;11.60;;
12654;SDS011;6392;44.644;11.448;2023-02-15T06:46:48;22.57;;;12.53;;
12654;SDS011;6392;44.644;11.448;2023-02-15T06:49:15;24.97;;;11.63;;
12654;SDS011;6392;44.644;11.448;2023-02-15T06:51:44;22.03;;;11.53;;
12654;SDS011;6392;44.644;11.448;2023-02-15T06:54:11;23.47;;;11.30;;
12654;SDS011;6392;44.644;11.448;2023-02-15T06:56:38;25.87;;;11.90;;
12654;SDS011;6392;44.644;11.448;2023-02-15T06:59:05;19.90;;;10.17;;
12654;SDS011;6392;44.644;11.448;2023-02-15T07:01:32;24.57;;;12.00;;
12654;SDS011;6392;44.644;11.448;2023-02-15T07:03:59;22.33;;;10.97;;
12654;SDS011;6392;44.644;11.448;2023-02-15T07:06:26;21.30;;;10.57;;
12654;SDS011;6392;44.644;11.448;2023-02-15T07:08:58;26.33;;;10.20;;
12654;SDS011;6392;44.644;11.448;2023-02-15T07:11:25;24.27;;;11.10;;
12654;SDS011;6392;44.644;11.448;2023-02-15T07:14:09;19.40;;;10.10;;
12654;SDS011;6392;44.644;11.448;2023-02-15T07:16:36;23.40;;;11.30;;
12654;SDS011;6392;44.644;11.448;2023-02-15T07:19:03;24.43;;;10.67;;
12654;SDS011;6392;44.644;11.448;2023-02-15T07:21:30;19.50;;;9.80;;
12654;SDS011;6392;44.644;11.448;2023-02-15T07:23:58;20.67;;;10.87;;
12654;SDS011;6392;44.644;11.448;2023-02-15T07:26:26;20.17;;;10.60;;
12654;SDS011;6392;44.644;11.448;2023-02-15T07:28:53;23.47;;;11.40;;
12654;SDS011;6392;44.644;11.448;2023-02-15T07:31:20;19.03;;;9.57;;
12654;SDS011;6392;44.644;11.448;2023-02-15T07:33:47;26.13;;;12.07;;
12654;SDS011;6392;44.644;11.448;2023-02-15T07:36:14;21.30;;;10.80;;
12654;SDS011;6392;44.644;11.448;2023-02-15T07:38:41;21.80;;;10.23;;
12654;SDS011;6392;44.644;11.448;2023-02-15T07:41:12;21.97;;;9.73;;
12654;SDS011;6392;44.644;11.448;2023-02-15T07:43:41;20.97;;;11.27;;
12654;SDS011;6392;44.644;11.448;2023-02-15T07:46:10;28.17;;;10.77;;
12654;SDS011;6392;44.644;11.448;2023-02-15T07:48:38;19.00;;;9.13;;
12654;SDS011;6392;44.644;11.448;2023-02-15T07:51:06;23.30;;;9.40;;
12654;SDS011;6392;44.644;11.448;2023-02-15T07:53:35;17.57;;;9.43;;
12654;SDS011;6392;44.644;11.448;2023-02-15T07:56:04;21.47;;;9.83;;
12654;SDS011;6392;44.644;11.448;2023-02-15T07:58:34;19.10;;;9.03;;
12654;SDS011;6392;44.644;11.448;2023-02-15T08:01:21;22.43;;;8.90;;
12654;SDS011;6392;44.644;11.448;2023-02-15T08:03:50;16.10;;;8.30;;
12654;SDS011;6392;44.644;11.448;2023-02-15T08:06:17;19.80;;;9.93;;
12654;SDS011;6392;44.644;11.448;2023-02-15T08:08:44;15.00;;;8.93;;
12654;SDS011;6392;44.644;11.448;2023-02-15T08:11:16;17.20;;;8.50;;
12654;SDS011;6392;44.644;11.448;2023-02-15T08:14:04;17.53;;;9.83;;
12654;SDS011;6392;44.644;11.448;2023-02-15T08:16:33;18.03;;;8.23;;
12654;SDS011;6392;44.644;11.448;2023-02-15T08:19:02;20.10;;;9.13;;
12654;SDS011;6392;44.644;11.448;2023-02-15T08:21:31;17.30;;;9.03;;
12654;SDS011;6392;44.644;11.448;2023-02-15T08:23:59;16.43;;;8.87;;
12654;SDS011;6392;44.644;11.448;2023-02-15T08:26:27;18.70;;;8.70;;
12654;SDS011;6392;44.644;11.448;2023-02-15T08:28:54;23.07;;;9.63;;
12654;SDS011;6392;44.644;11.448;2023-02-15T08:31:24;18.87;;;9.67;;
12654;SDS011;6392;44.644;11.448;2023-02-15T08:33:52;20.93;;;9.77;;
12654;SDS011;6392;44.644;11.448;2023-02-15T08:36:20;23.63;;;9.70;;
12654;SDS011;6392;44.644;11.448;2023-02-15T08:38:49;23.47;;;9.57;;
12654;SDS011;6392;44.644;11.448;2023-02-15T08:41:16;24.00;;;10.00;;
12654;SDS011;6392;44.644;11.448;2023-02-15T08:43:45;22.43;;;10.67;;
12654;SDS011;6392;44.644;11.448;2023-02-15T08:46:14;21.27;;;9.67;;
12654;SDS011;6392;44.644;11.448;2023-02-15T08:48:43;24.53;;;10.17;;
12654;SDS011;6392;44.644;11.448;2023-02-15T08:51:11;25.90;;;9.97;;
12654;SDS011;6392;44.644;11.448;2023-02-15T08:53:40;23.47;;;10.57;;
12654;SDS011;6392;44.644;11.448;2023-02-15T08:56:09;24.87;;;10.33;;
12654;SDS011;6392;44.644;11.448;2023-02-15T08:58:36;24.53;;;10.60;;
12654;SDS011;6392;44.644;11.448;2023-02-15T09:01:10;22.57;;;10.87;;
12654;SDS011;6392;44.644;11.448;2023-02-15T09:03:38;19.93;;;10.27;;
12654;SDS011;6392;44.644;11.448;2023-02-15T09:06:07;26.27;;;11.60;;
12654;SDS011;6392;44.644;11.448;2023-02-15T09:08:34;25.17;;;11.40;;
12654;SDS011;6392;44.644;11.448;2023-02-15T09:11:05;24.17;;;11.70;;
12654;SDS011;6392;44.644;11.448;2023-02-15T09:13:34;28.40;;;12.07;;
12654;SDS011;6392;44.644;11.448;2023-02-15T09:16:01;23.80;;;11.67;;
12654;SDS011;6392;44.644;11.448;2023-02-15T09:18:31;30.03;;;12.47;;
12654;SDS011;6392;44.644;11.448;2023-02-15T09:21:03;25.17;;;12.40;;
12654;SDS011;6392;44.644;11.448;2023-02-15T09:23:33;28.23;;;12.33;;
12654;SDS011;6392;44.644;11.448;2023-02-15T09:26:03;25.67;;;13.00;;
12654;SDS011;6392;44.644;11.448;2023-02-15T09:28:32;27.40;;;12.27;;
12654;SDS011;6392;44.644;11.448;2023-02-15T09:31:09;27.17;;;11.47;;
12654;SDS011;6392;44.644;11.448;2023-02-15T09:33:38;30.97;;;14.13;;
12654;SDS011;6392;44.644;11.448;2023-02-15T09:36:13;26.30;;;11.87;;
12654;SDS011;6392;44.644;11.448;2023-02-15T09:38:43;28.53;;;12.77;;
12654;SDS011;6392;44.644;11.448;2023-02-15T09:41:21;28.50;;;12.23;;
12654;SDS011;6392;44.644;11.448;2023-02-15T09:44:03;25.67;;;12.00;;
12654;SDS011;6392;44.644;11.448;2023-02-15T09:46:44;29.40;;;13.07;;
12654;SDS011;6392;44.644;11.448;2023-02-15T09:49:34;29.57;;;13.90;;
12654;SDS011;6392;44.644;11.448;2023-02-15T09:52:14;30.03;;;13.63;;
12654;SDS011;6392;44.644;11.448;2023-02-15T09:58:05;31.37;;;14.43;;
12654;SDS011;6392;44.644;11.448;2023-02-15T10:00:43;35.33;;;13.93;;
12654;SDS011;6392;44.644;11.448;2023-02-15T10:03:22;32.37;;;13.07;;
12654;SDS011;6392;44.644;11.448;2023-02-15T10:06:05;33.40;;;14.87;;
12654;SDS011;6392;44.644;11.448;2023-02-15T10:09:03;29.77;;;13.53;;
12654;SDS011;6392;44.644;11.448;2023-02-15T10:11:47;31.73;;;13.77;;
12654;SDS011;6392;44.644;11.448;2023-02-15T10:14:38;32.53;;;14.73;;
12654;SDS011;6392;44.644;11.448;2023-02-15T10:17:26;35.17;;;15.33;;
12654;SDS011;6392;44.644;11.448;2023-02-15T10:20:07;31.97;;;14.80;;
12654;SDS011;6392;44.644;11.448;2023-02-15T10:22:47;33.10;;;14.97;;
12654;SDS011;6392;44.644;11.448;2023-02-15T10:25:31;37.23;;;17.00;;
12654;SDS011;6392;44.644;11.448;2023-02-15T10:28:06;34.80;;;15.27;;
12654;SDS011;6392;44.644;11.448;2023-02-15T10:30:43;33.23;;;14.70;;
12654;SDS011;6392;44.644;11.448;2023-02-15T10:33:16;32.60;;;15.90;;
12654;SDS011;6392;44.644;11.448;2023-02-15T10:35:53;30.80;;;15.60;;
12654;SDS011;6392;44.644;11.448;2023-02-15T10:38:28;37.50;;;16.87;;
12654;SDS011;6392;44.644;11.448;2023-02-15T10:41:06;38.07;;;16.23;;
12654;SDS011;6392;44.644;11.448;2023-02-15T10:43:52;34.23;;;16.50;;
12654;SDS011;6392;44.644;11.448;2023-02-15T10:46:47;42.33;;;17.80;;
12654;SDS011;6392;44.644;11.448;2023-02-15T10:49:25;47.43;;;18.47;;
12654;SDS011;6392;44.644;11.448;2023-02-15T10:52:09;41.97;;;19.03;;
12654;SDS011;6392;44.644;11.448;2023-02-15T10:54:45;42.60;;;19.37;;
12654;SDS011;6392;44.644;11.448;2023-02-15T10:57:19;40.13;;;17.53;;
12654;SDS011;6392;44.644;11.448;2023-02-15T10:59:57;45.10;;;19.10;;
12654;SDS011;6392;44.644;11.448;2023-02-15T11:02:39;45.30;;;19.27;;
12654;SDS011;6392;44.644;11.448;2023-02-15T11:05:20;42.93;;;21.20;;
12654;SDS011;6392;44.644;11.448;2023-02-15T11:07:57;44.90;;;19.97;;
12654;SDS011;6392;44.644;11.448;2023-02-15T11:10:28;45.43;;;20.63;;
12654;SDS011;6392;44.644;11.448;2023-02-15T11:13:00;48.17;;;21.60;;
12654;SDS011;6392;44.644;11.448;2023-02-15T11:15:33;46.47;;;20.13;;
12654;SDS011;6392;44.644;11.448;2023-02-15T11:18:06;44.90;;;20.47;;
12654;SDS011;6392;44.644;11.448;2023-02-15T11:20:41;50.40;;;21.43;;
12654;SDS011;6392;44.644;11.448;2023-02-15T11:23:14;49.07;;;22.23;;
12654;SDS011;6392;44.644;11.448;2023-02-15T11:25:44;47.93;;;21.17;;
12654;SDS011;6392;44.644;11.448;2023-02-15T11:28:19;44.60;;;21.10;;
12654;SDS011;6392;44.644;11.448;2023-02-15T11:30:54;50.20;;;21.27;;
12654;SDS011;6392;44.644;11.448;2023-02-15T11:33:23;48.70;;;21.63;;
12654;SDS011;6392;44.644;11.448;2023-02-15T11:35:56;49.20;;;21.87;;
12654;SDS011;6392;44.644;11.448;2023-02-15T11:38:29;48.93;;;21.53;;
12654;SDS011;6392;44.644;11.448;2023-02-15T11:41:00;54.73;;;22.27;;
12654;SDS011;6392;44.644;11.448;2023-02-15T11:43:32;51.23;;;22.97;;
12654;SDS011;6392;44.644;11.448;2023-02-15T11:46:04;53.80;;;23.87;;
12654;SDS011;6392;44.644;11.448;2023-02-15T11:48:33;55.17;;;22.60;;
12654;SDS011;6392;44.644;11.448;2023-02-15T11:51:01;52.17;;;23.63;;
12654;SDS011;6392;44.644;11.448;2023-02-15T11:53:31;51.60;;;22.63;;
12654;SDS011;6392;44.644;11.448;2023-02-15T11:55:59;59.00;;;24.60;;
12654;SDS011;6392;44.644;11.448;2023-02-15T11:58:29;55.33;;;24.13;;
12654;SDS011;6392;44.644;11.448;2023-02-15T12:01:07;48.10;;;23.60;;
12654;SDS011;6392;44.644;11.448;2023-02-15T12:03:43;49.73;;;21.47;;
12654;SDS011;6392;44.644;11.448;2023-02-15T12:06:17;54.60;;;23.70;;
12654;SDS011;6392;44.644;11.448;2023-02-15T12:08:51;52.87;;;23.40;;
12654;SDS011;6392;44.644;11.448;2023-02-15T12:11:23;54.03;;;24.37;;
12654;SDS011;6392;44.644;11.448;2023-02-15T12:13:57;48.30;;;23.10;;
12654;SDS011;6392;44.644;11.448;2023-02-15T12:16:26;52.57;;;23.23;;
12654;SDS011;6392;44.644;11.448;2023-02-15T12:18:55;50.40;;;23.03;;
12654;SDS011;6392;44.644;11.448;2023-02-15T12:21:25;55.50;;;23.77;;
12654;SDS011;6392;44.644;11.448;2023-02-15T12:23:55;48.07;;;21.53;;
12654;SDS011;6392;44.644;11.448;2023-02-15T12:26:24;53.13;;;24.80;;
12654;SDS011;6392;44.644;11.448;2023-02-15T12:28:53;60.53;;;26.13;;
12654;SDS011;6392;44.644;11.448;2023-02-15T12:31:30;51.20;;;23.07;;
12654;SDS011;6392;44.644;11.448;2023-02-15T12:34:00;54.83;;;24.57;;
12654;SDS011;6392;44.644;11.448;2023-02-15T12:36:40;52.00;;;22.63;;
12654;SDS011;6392;44.644;11.448;2023-02-15T12:39:18;52.20;;;23.20;;
12654;SDS011;6392;44.644;11.448;2023-02-15T12:41:56;52.37;;;21.77;;
12654;SDS011;6392;44.644;11.448;2023-02-15T12:44:27;53.67;;;22.83;;
12654;SDS011;6392;44.644;11.448;2023-02-15T12:47:00;48.87;;;20.90;;
12654;SDS011;6392;44.644;11.448;2023-02-15T12:49:29;50.47;;;22.70;;
12654;SDS011;6392;44.644;11.448;2023-02-15T12:51:58;49.67;;;23.67;;
12654;SDS011;6392;44.644;11.448;2023-02-15T12:54:28;52.33;;;23.07;;
12654;SDS011;6392;44.644;11.448;2023-02-15T12:57:12;50.10;;;22.67;;
12654;SDS011;6392;44.644;11.448;2023-02-15T12:59:49;49.20;;;21.33;;
12654;SDS011;6392;44.644;11.448;2023-02-15T13:02:21;49.10;;;22.80;;
12654;SDS011;6392;44.644;11.448;2023-02-15T13:04:54;52.83;;;22.33;;
12654;SDS011;6392;44.644;11.448;2023-02-15T13:07:23;48.20;;;23.03;;
12654;SDS011;6392;44.644;11.448;2023-02-15T13:09:57;51.83;;;22.70;;
12654;SDS011;6392;44.644;11.448;2023-02-15T13:12:25;51.17;;;23.30;;
12654;SDS011;6392;44.644;11.448;2023-02-15T13:14:55;45.87;;;20.40;;
12654;SDS011;6392;44.644;11.448;2023-02-15T13:17:26;45.73;;;21.73;;
12654;SDS011;6392;44.644;11.448;2023-02-15T13:19:57;47.60;;;20.57;;
12654;SDS011;6392;44.644;11.448;2023-02-15T13:22:30;48.10;;;21.83;;
12654;SDS011;6392;44.644;11.448;2023-02-15T13:25:04;47.60;;;21.57;;
12654;SDS011;6392;44.644;11.448;2023-02-15T13:27:38;46.90;;;22.13;;
12654;SDS011;6392;44.644;11.448;2023-02-15T13:30:18;48.80;;;20.30;;
12654;SDS011;6392;44.644;11.448;2023-02-15T13:32:53;47.73;;;20.47;;
12654;SDS011;6392;44.644;11.448;2023-02-15T13:35:23;41.03;;;19.83;;
12654;SDS011;6392;44.644;11.448;2023-02-15T13:38:01;47.93;;;19.70;;
12654;SDS011;6392;44.644;11.448;2023-02-15T13:40:36;46.27;;;20.77;;
12654;SDS011;6392;44.644;11.448;2023-02-15T13:43:13;49.13;;;21.10;;
12654;SDS011;6392;44.644;11.448;2023-02-15T13:45:55;49.63;;;20.90;;
12654;SDS011;6392;44.644;11.448;2023-02-15T13:48:34;51.10;;;21.60;;
12654;SDS011;6392;44.644;11.448;2023-02-15T13:51:09;46.53;;;19.83;;
12654;SDS011;6392;44.644;11.448;2023-02-15T13:53:54;49.23;;;21.23;;
12654;SDS011;6392;44.644;11.448;2023-02-15T13:56:48;46.27;;;20.00;;
12654;SDS011;6392;44.644;11.448;2023-02-15T13:59:28;47.77;;;21.07;;
12654;SDS011;6392;44.644;11.448;2023-02-15T14:02:14;46.87;;;20.83;;
12654;SDS011;6392;44.644;11.448;2023-02-15T14:05:06;45.13;;;20.90;;
12654;SDS011;6392;44.644;11.448;2023-02-15T14:07:53;46.83;;;19.70;;
12654;SDS011;6392;44.644;11.448;2023-02-15T14:10:28;45.20;;;19.80;;
12654;SDS011;6392;44.644;11.448;2023-02-15T14:13:25;46.23;;;20.23;;
12654;SDS011;6392;44.644;11.448;2023-02-15T14:16:09;46.23;;;20.43;;
12654;SDS011;6392;44.644;11.448;2023-02-15T14:18:42;48.53;;;20.67;;
12654;SDS011;6392;44.644;11.448;2023-02-15T14:21:15;48.43;;;22.37;;
12654;SDS011;6392;44.644;11.448;2023-02-15T14:23:53;37.00;;;19.20;;
12654;SDS011;6392;44.644;11.448;2023-02-15T14:26:34;40.83;;;18.70;;
12654;SDS011;6392;44.644;11.448;2023-02-15T14:29:08;42.07;;;19.93;;
12654;SDS011;6392;44.644;11.448;2023-02-15T14:31:45;45.87;;;19.33;;
12654;SDS011;6392;44.644;11.448;2023-02-15T14:34:18;38.73;;;18.10;;
12654;SDS011;6392;44.644;11.448;2023-02-15T14:36:50;44.00;;;19.50;;
12654;SDS011;6392;44.644;11.448;2023-02-15T14:39:23;42.53;;;18.33;;
12654;SDS011;6392;44.644;11.448;2023-02-15T14:42:18;43.93;;;18.93;;
12654;SDS011;6392;44.644;11.448;2023-02-15T14:44:53;43.13;;;18.73;;
12654;SDS011;6392;44.644;11.448;2023-02-15T14:47:29;41.10;;;18.93;;
12654;SDS011;6392;44.644;11.448;2023-02-15T14:56:05;45.27;;;19.03;;
12654;SDS011;6392;44.644;11.448;2023-02-15T14:58:57;42.37;;;19.90;;
12654;SDS011;6392;44.644;11.448;2023-02-15T15:01:42;44.93;;;19.97;;
12654;SDS011;6392;44.644;11.448;2023-02-15T15:04:31;43.90;;;20.33;;
12654;SDS011;6392;44.644;11.448;2023-02-15T15:07:02;45.07;;;19.23;;
12654;SDS011;6392;44.644;11.448;2023-02-15T15:09:37;39.53;;;18.40;;
12654;SDS011;6392;44.644;11.448;2023-02-15T15:12:18;39.50;;;17.73;;
12654;SDS011;6392;44.644;11.448;2023-02-15T15:15:03;46.67;;;19.83;;